createdAt,value
2022-12-23T00:03:31.369Z,7.13
2022-12-23T00:08:34.618Z,7.77
2022-12-23T00:13:55.182Z,7.23
2022-12-23T00:18:57.342Z,6.50
2022-12-23T00:23:59.460Z,5.60
2022-12-23T00:29:01.406Z,4.97
2022-12-23T00:34:03.249Z,4.90
2022-12-23T00:39:23.632Z,4.70
2022-12-23T00:44:25.803Z,3.97
2022-12-23T00:49:42.964Z,3.67
2022-12-23T00:54:44.878Z,2.97
2022-12-23T00:59:46.636Z,2.63
2022-12-23T01:05:26.850Z,2.53
2022-12-23T01:10:28.754Z,2.70
2022-12-23T01:15:31.415Z,3.27
2022-12-23T01:20:33.225Z,3.33
2022-12-23T01:25:35.201Z,3.80
2022-12-23T01:30:38.041Z,3.80
2022-12-23T01:35:39.950Z,3.90
2022-12-23T01:40:45.149Z,4.00
2022-12-23T01:45:47.490Z,3.70
2022-12-23T01:51:05.220Z,3.30
2022-12-23T01:56:25.788Z,3.57
2022-12-23T02:01:48.028Z,3.30
2022-12-23T02:07:10.163Z,3.50
2022-12-23T02:12:57.078Z,2.73
2022-12-23T02:18:21.917Z,3.23
2022-12-23T02:23:42.560Z,2.83
2022-12-23T02:28:57.134Z,3.00
2022-12-23T02:34:21.464Z,3.07
2022-12-23T02:39:40.773Z,2.87
2022-12-23T02:44:48.310Z,3.20
2022-12-23T02:49:57.573Z,2.73
2022-12-23T02:55:13.482Z,2.70
2022-12-23T03:00:16.847Z,3.23
2022-12-23T03:05:41.103Z,3.00
2022-12-23T03:11:02.564Z,3.40
2022-12-23T03:16:26.942Z,3.17
2022-12-23T03:21:35.187Z,3.03
2022-12-23T03:26:49.178Z,3.73
2022-12-23T03:31:53.942Z,2.93
2022-12-23T03:37:00.638Z,3.10
2022-12-23T03:42:09.985Z,3.87
2022-12-23T03:47:28.609Z,3.37
2022-12-23T03:52:34.861Z,3.17
2022-12-23T03:58:03.067Z,3.30
2022-12-23T04:03:21.986Z,2.77
2022-12-23T04:08:32.705Z,3.27
2022-12-23T04:13:34.495Z,3.23
2022-12-23T04:18:36.456Z,3.03
2022-12-23T04:23:40.266Z,3.50
2022-12-23T04:28:42.185Z,3.70
2022-12-23T04:33:44.110Z,3.87
2022-12-23T04:38:45.922Z,3.50
2022-12-23T04:43:52.791Z,3.93
2022-12-23T04:48:55.210Z,4.13
2022-12-23T04:53:57.391Z,4.00
2022-12-23T04:59:02.179Z,4.07
2022-12-23T05:04:04.127Z,5.70
2022-12-23T05:09:06.194Z,5.33
2022-12-23T05:14:10.086Z,6.17
2022-12-23T05:19:14.585Z,7.10
2022-12-23T05:24:16.494Z,7.97
2022-12-23T05:29:18.431Z,6.97
2022-12-23T05:34:20.435Z,7.00
2022-12-23T05:39:22.212Z,6.30
2022-12-23T05:44:24.020Z,7.23
2022-12-23T05:49:26.654Z,6.13
2022-12-23T05:54:28.590Z,5.83
2022-12-23T05:59:31.668Z,5.30
2022-12-23T06:04:33.887Z,5.43
2022-12-23T06:09:35.645Z,4.47
2022-12-23T06:14:37.587Z,4.67
2022-12-23T06:19:39.341Z,4.37
2022-12-23T06:24:41.123Z,5.03
2022-12-23T06:29:43.105Z,5.57
2022-12-23T06:34:44.958Z,4.87
2022-12-23T06:39:46.940Z,5.40
2022-12-23T06:44:48.912Z,4.27
2022-12-23T06:49:50.818Z,4.03
2022-12-23T06:54:52.934Z,4.00
2022-12-23T06:59:54.886Z,4.17
2022-12-23T07:04:56.787Z,4.47
2022-12-23T07:09:58.802Z,4.67
2022-12-23T07:15:00.777Z,4.73
2022-12-23T07:20:03.108Z,5.10
2022-12-23T07:25:05.350Z,5.00
2022-12-23T07:30:08.003Z,5.10
2022-12-23T07:35:10.008Z,4.70
2022-12-23T07:40:12.400Z,6.00
2022-12-23T07:45:14.280Z,7.03
2022-12-23T07:50:17.148Z,6.83
2022-12-23T07:55:19.702Z,6.03
2022-12-23T08:00:22.025Z,6.33
2022-12-23T08:05:23.872Z,6.50
2022-12-23T08:10:26.827Z,5.13
2022-12-23T08:15:28.739Z,6.20
2022-12-23T08:20:30.718Z,6.00
2022-12-23T08:25:32.660Z,6.23
2022-12-23T08:30:34.494Z,5.50
2022-12-23T08:35:36.430Z,5.20
2022-12-23T08:40:41.646Z,5.43
2022-12-23T08:45:43.863Z,5.63
2022-12-23T08:50:46.749Z,5.70
2022-12-23T08:55:48.860Z,5.73
2022-12-23T09:00:50.800Z,5.57
2022-12-23T09:05:52.590Z,5.27
2022-12-23T09:10:54.378Z,6.17
2022-12-23T09:15:56.513Z,5.60
2022-12-23T09:21:00.189Z,5.50
2022-12-23T09:26:04.420Z,4.93
2022-12-23T09:31:11.087Z,5.33
2022-12-23T09:36:12.910Z,4.60
2022-12-23T09:41:48.941Z,5.30
2022-12-23T09:46:58.669Z,4.47
2022-12-23T09:52:05.149Z,4.70
2022-12-23T09:57:22.986Z,5.00
2022-12-23T10:02:44.244Z,4.77
2022-12-23T10:07:51.324Z,4.63
2022-12-23T10:12:54.765Z,5.03
2022-12-23T10:18:02.532Z,6.17
2022-12-23T10:23:10.679Z,4.30
2022-12-23T10:28:12.467Z,4.33
2022-12-23T10:33:23.445Z,5.53
2022-12-23T10:38:28.168Z,5.13
2022-12-23T10:43:48.960Z,6.20
2022-12-23T10:49:12.399Z,7.60
2022-12-23T10:54:23.422Z,7.17
2022-12-23T10:59:33.466Z,5.70
2022-12-23T11:04:37.772Z,6.43
2022-12-23T11:09:52.171Z,5.77
2022-12-23T11:14:56.984Z,7.13
2022-12-23T11:20:10.859Z,5.63
2022-12-23T11:25:43.170Z,5.43
2022-12-23T11:30:56.253Z,5.00
2022-12-23T11:36:02.696Z,5.27
2022-12-23T11:41:05.630Z,3.87
2022-12-23T11:46:25.476Z,4.00
2022-12-23T11:51:27.807Z,3.37
2022-12-23T11:56:39.762Z,3.27
2022-12-23T12:01:47.789Z,3.37
2022-12-23T12:06:56.278Z,2.63
2022-12-23T12:12:08.506Z,2.20
2022-12-23T12:17:19.614Z,1.90
2022-12-23T12:22:32.421Z,2.17
2022-12-23T12:27:39.418Z,2.27
2022-12-23T12:32:50.545Z,2.13
2022-12-23T12:38:07.072Z,2.23
2022-12-23T12:43:22.745Z,2.23
2022-12-23T12:49:06.829Z,2.20
2022-12-23T12:54:30.220Z,1.90
2022-12-23T12:59:35.523Z,1.60
2022-12-23T13:05:39.561Z,1.60
2022-12-23T13:10:57.044Z,1.50
2022-12-23T13:16:37.759Z,1.50
2022-12-23T13:22:01.512Z,0.90
2022-12-23T13:27:12.621Z,1.07
2022-12-23T13:32:26.930Z,1.20
2022-12-23T13:37:50.472Z,1.35
2022-12-23T13:42:56.853Z,1.30
2022-12-23T13:48:15.087Z,1.83
2022-12-23T13:53:42.646Z,1.87
2022-12-23T13:58:48.297Z,1.20
2022-12-23T14:03:50.799Z,1.90
2022-12-23T14:08:53.987Z,1.80
2022-12-23T14:14:01.794Z,1.70
2022-12-23T14:19:06.647Z,1.70
2022-12-23T14:24:36.706Z,1.80
2022-12-23T14:29:38.785Z,1.35
2022-12-23T14:35:12.502Z,1.33
2022-12-23T14:40:39.342Z,1.20
2022-12-23T14:45:44.597Z,1.08
2022-12-23T14:50:57.805Z,1.30
2022-12-23T14:56:14.863Z,1.30
2022-12-23T15:01:20.790Z,1.45
2022-12-23T15:06:32.102Z,1.50
2022-12-23T15:11:35.767Z,1.67
2022-12-23T15:16:40.336Z,1.80
2022-12-23T15:21:46.812Z,1.97
2022-12-23T15:27:24.622Z,2.40
2022-12-23T15:32:15.654Z,2.57
2022-12-23T15:37:24.568Z,2.00
2022-12-23T15:42:31.747Z,2.73
2022-12-23T15:47:42.976Z,3.47
2022-12-23T15:52:47.385Z,3.23
2022-12-23T15:57:51.590Z,3.17
2022-12-23T16:03:01.760Z,2.97
2022-12-23T16:08:21.807Z,3.50
2022-12-23T16:13:28.712Z,3.77
2022-12-23T16:18:32.688Z,3.43
2022-12-23T16:23:37.265Z,3.33
2022-12-23T16:28:42.312Z,4.33
2022-12-23T16:33:47.262Z,4.90
2022-12-23T16:38:51.089Z,3.37
2022-12-23T16:43:53.217Z,3.90
2022-12-23T16:48:58.870Z,4.03
2022-12-23T16:54:01.292Z,3.73
2022-12-23T16:59:03.862Z,4.30
2022-12-23T17:04:06.634Z,4.27
2022-12-23T17:09:10.070Z,3.47
2022-12-23T17:14:18.537Z,4.10
2022-12-23T17:19:27.989Z,3.83
2022-12-23T17:24:30.796Z,3.33
2022-12-23T17:29:32.713Z,3.40
2022-12-23T17:34:34.496Z,3.97
2022-12-23T17:39:36.547Z,4.13
2022-12-23T17:44:38.457Z,3.97
2022-12-23T17:49:40.220Z,3.70
2022-12-23T17:54:43.025Z,3.63
2022-12-23T17:59:49.081Z,4.00
2022-12-23T18:04:51.484Z,4.97
2022-12-23T18:09:54.004Z,4.13
2022-12-23T18:14:56.497Z,4.63
2022-12-23T18:19:58.644Z,4.33
2022-12-23T18:25:00.422Z,4.20
2022-12-23T18:30:02.316Z,4.17
2022-12-23T18:35:23.003Z,3.70
2022-12-23T18:40:32.414Z,3.80
2022-12-23T18:45:41.634Z,4.83
2022-12-23T18:50:46.480Z,5.00
2022-12-23T18:55:49.250Z,4.20
2022-12-23T19:00:53.058Z,4.10
2022-12-23T19:05:58.617Z,3.63
2022-12-23T19:11:01.295Z,4.50
2022-12-23T19:16:03.336Z,4.50
2022-12-23T19:21:05.575Z,3.83
2022-12-23T19:26:10.261Z,3.63
2022-12-23T19:31:14.099Z,5.33
2022-12-23T19:36:19.334Z,3.43
2022-12-23T19:41:21.190Z,4.10
2022-12-23T19:46:23.235Z,4.70
2022-12-23T19:51:25.009Z,4.93
2022-12-23T19:56:29.235Z,3.67
2022-12-23T20:01:31.077Z,4.57
2022-12-23T20:06:34.987Z,4.53
2022-12-23T20:11:40.514Z,4.00
2022-12-23T20:16:43.291Z,3.20
2022-12-23T20:21:45.761Z,5.30
2022-12-23T20:26:47.835Z,4.17
2022-12-23T20:31:49.834Z,3.77
2022-12-23T20:36:51.877Z,4.03
2022-12-23T20:41:53.883Z,3.60
2022-12-23T20:46:55.673Z,5.40
2022-12-23T20:51:57.516Z,4.67
2022-12-23T20:56:59.287Z,3.47
2022-12-23T21:02:01.325Z,4.07
2022-12-23T21:07:03.159Z,3.80
2022-12-23T21:12:05.063Z,4.73
2022-12-23T21:17:06.982Z,4.27
2022-12-23T21:22:09.049Z,4.07
2022-12-23T21:27:10.806Z,5.07
2022-12-23T21:32:12.559Z,3.43
2022-12-23T21:37:14.376Z,3.43
2022-12-23T21:42:16.371Z,4.80
2022-12-23T21:47:18.271Z,4.67
2022-12-23T21:52:20.100Z,3.87
2022-12-23T21:57:22.011Z,6.07
2022-12-23T22:02:23.852Z,4.73
2022-12-23T22:07:25.741Z,4.50
2022-12-23T22:12:27.729Z,4.70
2022-12-23T22:17:29.697Z,4.37
2022-12-23T22:22:33.525Z,4.93
2022-12-23T22:27:35.332Z,5.27
2022-12-23T22:32:42.242Z,5.10
2022-12-23T22:37:44.441Z,4.53
2022-12-23T22:42:46.211Z,4.53
2022-12-23T22:47:48.015Z,5.43
2022-12-23T22:52:52.674Z,4.77
2022-12-23T22:57:54.458Z,5.33
2022-12-23T23:02:56.302Z,3.87
2022-12-23T23:07:58.550Z,4.70
2022-12-23T23:13:00.411Z,4.47
2022-12-23T23:18:02.172Z,4.90
2022-12-23T23:23:04.173Z,4.03
2022-12-23T23:28:07.703Z,4.50
2022-12-23T23:33:10.684Z,3.87
2022-12-23T23:38:12.527Z,4.33
2022-12-23T23:43:14.629Z,3.90
2022-12-23T23:48:18.009Z,4.70
2022-12-23T23:53:19.830Z,4.40
2022-12-23T23:58:21.782Z,4.83
